Time;durP1;ratioP1;P1;durP2;ratioP2;P2;SDS_P1;SDS_P2;PMS_P1;PMS_P2;Temp;Humidity;BMP_temperature;BMP_pressure;BME280_temperature;BME280_humidity;BME280_pressure;Samples;Min_cycle;Max_cycle;Signal;HPM_P1;HPM_P2
2021/12/05 00:18:41;;;;;;;12.52;2.55;;;;;;;-146.48;100.00;60459.00;5218143;28;20034;-71
2021/12/05 00:23:54;;;;;;;11.98;1.60;;;;;;;-146.48;100.00;60459.00;5324728;28;20035;-71
2021/12/05 00:26:27;;;;;;;13.38;2.47;;;;;;;-146.48;100.00;60459.00;5324276;28;20027;-71
2021/12/05 00:59:11;;;;;;;11.98;2.38;;;;;;;-146.48;100.00;60459.00;5323698;28;20028;-71
2021/12/05 01:05:51;;;;;;;12.55;3.22;;;;;;;-146.48;100.00;60459.00;5324677;28;20463;-71
2021/12/05 01:07:57;;;;;;;14.95;2.47;;;;;;;-146.48;100.00;60459.00;5318451;28;20066;-71
2021/12/05 01:10:54;;;;;;;10.85;2.42;;;;;;;-146.48;100.00;60459.00;5324647;28;20046;-71
2021/12/05 01:13:34;;;;;;;11.77;2.35;;;;;;;-146.48;100.00;60459.00;5323335;28;20046;-71
2021/12/05 01:16:10;;;;;;;11.73;2.30;;;;;;;-146.48;100.00;60459.00;5323638;28;20035;-71
2021/12/05 01:18:41;;;;;;;14.73;1.85;;;;;;;-146.48;100.00;60459.00;5323431;28;20024;-71
2021/12/05 01:21:16;;;;;;;13.95;2.40;;;;;;;-146.48;100.00;60459.00;5323260;28;20501;-71
2021/12/05 01:45:35;;;;;;;14.45;2.28;;;;;;;-146.48;100.00;60459.00;5323505;28;20073;-71
2021/12/05 01:59:21;;;;;;;11.52;1.83;;;;;;;-146.48;100.00;60459.00;5327022;28;20047;-71
2021/12/05 02:33:07;;;;;;;10.88;1.33;;;;;;;-146.48;100.00;60459.00;5326334;28;20114;-71
2021/12/05 02:41:16;;;;;;;12.65;1.58;;;;;;;-146.48;100.00;60459.00;5327205;28;20036;-71
2021/12/05 02:43:59;;;;;;;9.13;1.42;;;;;;;-146.48;100.00;60459.00;5326917;28;20054;-71
2021/12/05 02:46:30;;;;;;;13.90;1.73;;;;;;;-146.48;100.00;60459.00;5326235;28;20040;-72
2021/12/05 02:49:05;;;;;;;7.78;1.33;;;;;;;-146.48;100.00;60459.00;5326451;28;20039;-71
2021/12/05 02:51:36;;;;;;;8.38;1.40;;;;;;;-146.48;100.00;60459.00;5327049;28;20028;-71
2021/12/05 02:54:16;;;;;;;10.45;1.52;;;;;;;-146.48;100.00;60459.00;5326094;28;20030;-71
2021/12/05 02:56:50;;;;;;;10.43;1.27;;;;;;;-146.48;100.00;60459.00;5326341;28;20038;-71
2021/12/05 03:02:13;;;;;;;9.32;1.58;;;;;;;-146.48;100.00;60459.00;5327254;28;20417;-70
2021/12/05 03:04:47;;;;;;;9.95;1.77;;;;;;;-146.48;100.00;60459.00;5326416;28;20459;-70
2021/12/05 03:07:26;;;;;;;6.93;1.23;;;;;;;-146.48;100.00;60459.00;5326319;28;20030;-71
2021/12/05 03:09:57;;;;;;;12.35;1.17;;;;;;;-146.48;100.00;60459.00;5325058;28;20567;-72
2021/12/05 03:12:30;;;;;;;9.88;1.58;;;;;;;-146.48;100.00;60459.00;5326741;28;20031;-70
2021/12/05 03:15:08;;;;;;;10.02;1.27;;;;;;;-146.48;100.00;60459.00;5325270;28;20031;-70
2021/12/05 03:17:41;;;;;;;11.40;1.55;;;;;;;-146.48;100.00;60459.00;5325749;28;20046;-71
2021/12/05 03:20:14;;;;;;;10.00;1.60;;;;;;;-146.48;100.00;60459.00;5325653;28;20070;-71
2021/12/05 03:22:46;;;;;;;9.68;1.35;;;;;;;-146.48;100.00;60459.00;5325781;28;20548;-71
2021/12/05 03:25:18;;;;;;;8.68;1.38;;;;;;;-146.48;100.00;60459.00;5326588;28;20023;-71
2021/12/05 03:27:49;;;;;;;9.10;1.40;;;;;;;-146.48;100.00;60459.00;5324856;28;20034;-71
2021/12/05 03:30:23;;;;;;;11.43;1.17;;;;;;;-146.48;100.00;60459.00;5326373;28;20043;-71
2021/12/05 03:32:55;;;;;;;6.63;1.50;;;;;;;-146.48;100.00;60459.00;5325535;28;20453;-71
2021/12/05 03:35:28;;;;;;;10.20;2.05;;;;;;;-146.48;100.00;60459.00;5325248;28;20031;-72
2021/12/05 03:38:00;;;;;;;8.07;1.65;;;;;;;-146.48;100.00;60459.00;5325614;28;20030;-71
2021/12/05 03:40:33;;;;;;;8.57;1.60;;;;;;;-146.48;100.00;60459.00;5326188;28;20011;-71
2021/12/05 03:43:08;;;;;;;7.93;1.58;;;;;;;-146.48;100.00;60459.00;5324559;28;20106;-71
2021/12/05 03:45:43;;;;;;;11.80;1.67;;;;;;;-146.48;100.00;60459.00;5325353;28;20027;-71
2021/12/05 03:48:16;;;;;;;8.90;1.30;;;;;;;-146.48;100.00;60459.00;5324806;28;20106;-71
2021/12/05 03:50:48;;;;;;;10.40;1.38;;;;;;;-146.48;100.00;60459.00;5325351;28;20508;-70
2021/12/05 03:53:19;;;;;;;7.00;1.20;;;;;;;-146.48;100.00;60459.00;5325720;28;20031;-71
2021/12/05 03:55:54;;;;;;;10.70;1.98;;;;;;;-146.48;100.00;60459.00;5324219;28;20462;-71
2021/12/05 03:58:28;;;;;;;13.02;4.60;;;;;;;-146.48;100.00;60459.00;5325889;28;20027;-71
2021/12/05 04:01:01;;;;;;;10.00;4.70;;;;;;;-146.48;100.00;60459.00;5325264;28;20035;-71
2021/12/05 04:03:33;;;;;;;7.18;3.20;;;;;;;-146.48;100.00;60459.00;5324898;28;20024;-71
2021/12/05 04:06:08;;;;;;;8.05;3.53;;;;;;;-146.48;100.00;60459.00;5325000;28;20065;-70
2021/12/05 04:08:40;;;;;;;12.52;4.85;;;;;;;-146.48;100.00;60459.00;5325090;28;20031;-71
2021/12/05 04:11:21;;;;;;;10.23;2.03;;;;;;;-146.48;100.00;60459.00;5324819;28;20027;-70
2021/12/05 04:13:52;;;;;;;9.25;3.55;;;;;;;-146.48;100.00;60459.00;5324811;28;20028;-71
2021/12/05 04:16:24;;;;;;;10.95;5.50;;;;;;;-146.48;100.00;60459.00;5324521;28;20034;-70
2021/12/05 04:18:57;;;;;;;13.68;6.97;;;;;;;-146.48;100.00;60459.00;5324586;28;20035;-70
2021/12/05 04:21:29;;;;;;;15.07;6.45;;;;;;;-146.48;100.00;60459.00;5325406;28;20024;-70
2021/12/05 04:24:02;;;;;;;7.60;1.63;;;;;;;-146.48;100.00;60459.00;5324027;28;20119;-70
2021/12/05 04:26:35;;;;;;;6.75;1.30;;;;;;;-146.48;100.00;60459.00;5325136;28;20053;-71
2021/12/05 04:29:08;;;;;;;7.20;1.55;;;;;;;-146.48;100.00;60459.00;5324503;28;20027;-70
2021/12/05 04:31:40;;;;;;;5.53;1.23;;;;;;;-146.48;100.00;60459.00;5323891;28;20058;-71
2021/12/05 04:34:12;;;;;;;3.47;1.13;;;;;;;-146.48;100.00;60459.00;5325135;28;20023;-70
2021/12/05 04:36:44;;;;;;;5.10;0.82;;;;;;;-146.48;100.00;60459.00;5324418;28;20027;-71
2021/12/05 04:39:15;;;;;;;8.52;1.25;;;;;;;-146.48;100.00;60459.00;5324147;28;20054;-70
2021/12/05 04:41:47;;;;;;;3.47;0.60;;;;;;;-146.48;100.00;60459.00;5324194;28;20065;-70
2021/12/05 04:44:20;;;;;;;4.32;0.77;;;;;;;-146.48;100.00;60459.00;5324129;28;20023;-70
2021/12/05 04:46:51;;;;;;;3.55;0.68;;;;;;;-146.48;100.00;60459.00;5323894;28;20036;-70
2021/12/05 04:49:23;;;;;;;10.68;2.03;;;;;;;-146.48;100.00;60459.00;5324621;28;20023;-70
2021/12/05 04:51:55;;;;;;;8.90;1.00;;;;;;;-146.48;100.00;60459.00;5323218;28;20023;-70
2021/12/05 04:54:27;;;;;;;9.88;0.93;;;;;;;-146.48;100.00;60459.00;5324809;28;20034;-70
2021/12/05 04:56:59;;;;;;;3.58;0.80;;;;;;;-146.48;100.00;60459.00;5324240;28;20115;-70
2021/12/05 04:59:35;;;;;;;8.35;1.42;;;;;;;-146.48;100.00;60459.00;5323854;28;20030;-70
2021/12/05 05:02:07;;;;;;;5.40;0.63;;;;;;;-146.48;100.00;60459.00;5323765;28;20031;-70
2021/12/05 05:04:48;;;;;;;4.38;0.90;;;;;;;-146.48;100.00;60459.00;5323735;28;20083;-70
2021/12/05 05:07:25;;;;;;;6.78;0.80;;;;;;;-146.48;100.00;60459.00;5323378;28;20035;-70
2021/12/05 05:10:00;;;;;;;6.57;1.10;;;;;;;-146.48;100.00;60459.00;5323895;28;20513;-70
2021/12/05 05:12:31;;;;;;;5.45;0.80;;;;;;;-146.48;100.00;60459.00;5323505;28;20081;-70
2021/12/05 05:15:05;;;;;;;7.75;1.00;;;;;;;-146.48;100.00;60459.00;5323542;28;20027;-71
2021/12/05 05:17:38;;;;;;;3.20;0.75;;;;;;;-146.48;100.00;60459.00;5324087;28;20024;-70
2021/12/05 05:20:21;;;;;;;5.15;0.70;;;;;;;-146.48;100.00;60459.00;5323489;28;20156;-70
2021/12/05 05:42:55;;;;;;;5.85;0.60;;;;;;;-146.48;100.00;60459.00;5323125;28;20039;-70
2021/12/05 05:45:48;;;;;;;3.30;0.52;;;;;;;-146.48;100.00;60459.00;5323792;28;20062;-70
2021/12/05 05:48:35;;;;;;;1.83;0.50;;;;;;;-146.48;100.00;60459.00;5322789;28;20055;-70
2021/12/05 05:51:08;;;;;;;3.70;0.60;;;;;;;-146.48;100.00;60459.00;5323065;28;20031;-70
2021/12/05 05:53:40;;;;;;;2.55;0.55;;;;;;;-146.48;100.00;60459.00;5323256;28;20107;-71
2021/12/05 05:56:17;;;;;;;3.42;0.50;;;;;;;-146.48;100.00;60459.00;5323101;28;20099;-70
2021/12/05 05:58:53;;;;;;;1.30;0.43;;;;;;;-146.48;100.00;60459.00;5322976;28;20085;-69
2021/12/05 06:04:09;;;;;;;1.70;0.50;;;;;;;-146.48;100.00;60459.00;5323884;28;20032;-70
2021/12/05 06:06:40;;;;;;;1.20;0.30;;;;;;;-146.48;100.00;60459.00;5323110;28;20424;-70
2021/12/05 06:09:11;;;;;;;1.17;0.40;;;;;;;-146.48;100.00;60459.00;5322839;28;20032;-71
2021/12/05 06:11:43;;;;;;;2.90;0.55;;;;;;;-146.48;100.00;60459.00;5323258;28;20032;-70
2021/12/05 06:14:14;;;;;;;3.08;0.70;;;;;;;-146.48;100.00;60459.00;5323565;28;20059;-70
2021/12/05 06:16:45;;;;;;;2.33;0.40;;;;;;;-146.48;100.00;60459.00;5322247;28;20023;-70
2021/12/05 06:19:16;;;;;;;1.05;0.28;;;;;;;-146.48;100.00;60459.00;5323503;28;20020;-70
2021/12/05 06:21:49;;;;;;;2.35;0.60;;;;;;;-146.48;100.00;60459.00;5322911;28;20024;-70
2021/12/05 06:24:23;;;;;;;2.45;0.30;;;;;;;-146.48;100.00;60459.00;5322863;28;20030;-69
2021/12/05 06:26:55;;;;;;;3.55;0.45;;;;;;;-146.48;100.00;60459.00;5323075;28;20031;-69
2021/12/05 06:29:32;;;;;;;2.45;0.60;;;;;;;-146.48;100.00;60459.00;5323364;28;20034;-70
2021/12/05 06:32:31;;;;;;;2.47;1.23;;;;;;;-146.48;100.00;60459.00;5321941;28;20023;-71
2021/12/05 06:37:50;;;;;;;3.17;0.50;;;;;;;-146.48;100.00;60459.00;5322368;28;20031;-71
2021/12/05 06:40:38;;;;;;;2.40;0.40;;;;;;;-146.48;100.00;60459.00;5323298;28;20024;-71
2021/12/05 06:46:30;;;;;;;2.20;0.35;;;;;;;-146.48;100.00;60459.00;5325336;28;20031;-70
2021/12/05 06:48:57;;;;;;;2.60;0.40;;;;;;;-146.48;100.00;60459.00;5326088;28;20411;-71
2021/12/05 06:51:29;;;;;;;3.03;0.50;;;;;;;-146.48;100.00;60459.00;5326361;28;20032;-70
2021/12/05 06:54:01;;;;;;;2.85;0.60;;;;;;;-146.48;100.00;60459.00;5326578;28;20037;-70
2021/12/05 06:56:32;;;;;;;1.98;0.50;;;;;;;-146.48;100.00;60459.00;5326948;28;20036;-71
2021/12/05 06:59:03;;;;;;;1.13;0.40;;;;;;;-146.48;100.00;60459.00;5325637;28;20023;-71
2021/12/05 07:01:35;;;;;;;2.15;0.50;;;;;;;-146.48;100.00;60459.00;5327034;28;20023;-71
2021/12/05 07:04:16;;;;;;;2.28;0.55;;;;;;;-146.48;100.00;60459.00;5326290;28;20076;-71
2021/12/05 07:06:48;;;;;;;3.38;0.50;;;;;;;-146.48;100.00;60459.00;5325217;28;20024;-71
2021/12/05 07:09:20;;;;;;;3.72;0.43;;;;;;;-146.48;100.00;60459.00;5326749;28;20020;-71
2021/12/05 07:14:38;;;;;;;3.20;0.82;;;;;;;-146.48;100.00;60459.00;5326290;28;20040;-70
2021/12/05 07:23:02;;;;;;;;;;;;;;;-146.48;100.00;60459.00;5326245;28;20036;-71
2021/12/05 07:25:44;;;;;;;2.53;0.60;;;;;;;-146.48;100.00;60459.00;5326474;28;19912;-70
2021/12/05 07:42:27;;;;;;;1.90;0.80;;;;;;;-146.48;100.00;60459.00;5325373;28;20479;-71
2021/12/05 07:45:01;;;;;;;2.33;0.90;;;;;;;-146.48;100.00;60459.00;5325307;28;20102;-71
2021/12/05 07:47:34;;;;;;;2.67;0.80;;;;;;;-146.48;100.00;60459.00;5324756;28;20075;-71
2021/12/05 07:50:09;;;;;;;2.75;1.15;;;;;;;-146.48;100.00;60459.00;5325395;28;20023;-71
2021/12/05 07:52:45;;;;;;;2.90;1.00;;;;;;;-146.48;100.00;60459.00;5325384;28;20031;-71
2021/12/05 07:55:29;;;;;;;3.30;1.00;;;;;;;-146.48;100.00;60459.00;5324713;28;20043;-71
2021/12/05 08:00:42;;;;;;;4.15;1.20;;;;;;;-146.48;100.00;60459.00;5325811;28;20040;-71
2021/12/05 08:14:38;;;;;;;2.70;1.10;;;;;;;-146.48;100.00;60459.00;5324229;28;20395;-71
2021/12/05 08:17:17;;;;;;;1.95;0.93;;;;;;;-146.48;100.00;60459.00;5323432;28;20055;-71
2021/12/05 08:19:48;;;;;;;;;;;;;;;-146.48;100.00;60459.00;5323895;28;20020;-71
2021/12/05 08:22:19;;;;;;;1.60;0.80;;;;;;;-146.48;100.00;60459.00;5323103;28;20380;-71
2021/12/05 08:24:51;;;;;;;2.15;1.05;;;;;;;-146.48;100.00;60459.00;5322980;28;20020;-71
2021/12/05 08:27:23;;;;;;;3.30;1.20;;;;;;;-146.48;100.00;60459.00;5323272;28;20031;-71
2021/12/05 08:29:57;;;;;;;3.15;1.00;;;;;;;-146.48;100.00;60459.00;5322742;28;20034;-73
2021/12/05 08:32:38;;;;;;;2.08;1.00;;;;;;;-146.48;100.00;60459.00;5323721;28;20035;-71
2021/12/05 08:38:36;;;;;;;2.90;1.10;;;;;;;-146.48;100.00;60459.00;5322373;28;20027;-72
2021/12/05 08:41:14;;;;;;;2.05;0.93;;;;;;;-146.48;100.00;60459.00;5322336;28;20042;-71
2021/12/05 08:44:21;;;;;;;2.92;1.00;;;;;;;-146.48;100.00;60459.00;5329340;27;20031;-71
2021/12/05 09:21:47;;;;;;;3.05;1.10;;;;;;;-146.48;100.00;60459.00;5344726;27;20412;-72
2021/12/05 09:51:12;;;;;;;4.03;2.33;;;;;;;-146.48;100.00;60459.00;5345267;27;20027;-72
2021/12/05 10:06:45;;;;;;;6.90;2.40;;;;;;;-146.48;100.00;60459.00;5345171;27;20126;-72
2021/12/05 10:18:53;;;;;;;5.20;3.47;;;;;;;-146.48;100.00;60459.00;5344693;27;20506;-72
2021/12/05 10:37:56;;;;;;;4.05;3.63;;;;;;;-146.48;100.00;60459.00;5347401;27;20039;-73
2021/12/05 10:40:37;;;;;;;3.38;2.40;;;;;;;-146.48;100.00;60459.00;5348437;27;20045;-72
2021/12/05 10:43:16;;;;;;;5.65;3.67;;;;;;;-146.48;100.00;60459.00;5347932;27;20031;-72
2021/12/05 10:45:52;;;;;;;3.17;2.88;;;;;;;-146.48;100.00;60459.00;5346273;27;20045;-72
2021/12/05 10:48:54;;;;;;;4.03;2.53;;;;;;;-146.48;100.00;60459.00;5348137;27;20051;-73
2021/12/05 10:51:27;;;;;;;3.15;2.60;;;;;;;-146.48;100.00;60459.00;5347833;27;20055;-72
2021/12/05 10:54:09;;;;;;;4.57;2.03;;;;;;;-146.48;100.00;60459.00;5348181;27;20015;-71
2021/12/05 10:56:51;;;;;;;3.90;2.58;;;;;;;-146.48;100.00;60459.00;5347780;27;20199;-70
2021/12/05 10:59:31;;;;;;;3.10;2.40;;;;;;;-146.48;100.00;60459.00;5347811;27;20020;-72
2021/12/05 11:02:09;;;;;;;4.43;2.17;;;;;;;-146.48;100.00;60459.00;5348056;27;20459;-72
2021/12/05 11:04:44;;;;;;;3.60;2.20;;;;;;;-146.48;100.00;60459.00;5347228;27;20054;-72
2021/12/05 11:07:18;;;;;;;2.20;1.40;;;;;;;-146.48;100.00;60459.00;5348319;27;20023;-72
2021/12/05 11:09:55;;;;;;;3.42;1.33;;;;;;;-146.48;100.00;60459.00;5347907;27;20148;-72
2021/12/05 11:12:35;;;;;;;3.35;1.10;;;;;;;-146.48;100.00;60459.00;5347684;27;20382;-70
2021/12/05 11:15:14;;;;;;;1.88;1.00;;;;;;;-146.48;100.00;60459.00;5347702;27;20125;-72
2021/12/05 11:17:49;;;;;;;2.33;1.05;;;;;;;-146.48;100.00;60459.00;5347518;27;20026;-72
2021/12/05 11:20:29;;;;;;;1.65;0.80;;;;;;;-146.48;100.00;60459.00;5347492;27;20027;-72
2021/12/05 11:23:01;;;;;;;1.83;0.80;;;;;;;-146.48;100.00;60459.00;5347319;27;20374;-70
2021/12/05 11:25:35;;;;;;;1.90;1.10;;;;;;;-146.48;100.00;60459.00;5347174;27;20011;-70
2021/12/05 11:28:08;;;;;;;1.75;1.30;;;;;;;-146.48;100.00;60459.00;5346975;27;20035;-70
2021/12/05 11:30:41;;;;;;;2.75;1.30;;;;;;;-146.48;100.00;60459.00;5346506;27;20478;-71
2021/12/05 11:33:20;;;;;;;2.65;2.13;;;;;;;-146.48;100.00;60459.00;5347006;27;20441;-71
2021/12/05 11:36:01;;;;;;;2.95;2.28;;;;;;;-146.48;100.00;60459.00;5347008;27;20023;-71
2021/12/05 11:38:34;;;;;;;3.05;2.35;;;;;;;-146.48;100.00;60459.00;5347479;27;20109;-71
2021/12/05 11:41:11;;;;;;;3.05;2.75;;;;;;;-146.48;100.00;60459.00;5346171;27;20116;-71
2021/12/05 11:43:47;;;;;;;2.85;2.45;;;;;;;-146.48;100.00;60459.00;5346761;27;20059;-71
2021/12/05 11:46:26;;;;;;;3.17;2.67;;;;;;;-146.48;100.00;60459.00;5346546;27;20058;-71
2021/12/05 11:49:05;;;;;;;3.28;2.97;;;;;;;-146.48;100.00;60459.00;5346687;27;20121;-71
2021/12/05 11:51:44;;;;;;;3.42;2.72;;;;;;;-146.48;100.00;60459.00;5346993;27;20068;-73
2021/12/05 11:54:27;;;;;;;2.83;2.50;;;;;;;-146.48;100.00;60459.00;5346755;27;20055;-71
2021/12/05 11:57:07;;;;;;;3.00;2.65;;;;;;;-146.48;100.00;60459.00;5346362;27;20457;-71
2021/12/05 11:59:50;;;;;;;4.03;3.63;;;;;;;-146.48;100.00;60459.00;5344385;27;20106;-71
2021/12/05 12:02:26;;;;;;;3.55;3.25;;;;;;;-146.48;100.00;60459.00;5345129;27;20027;-71
2021/12/05 12:05:03;;;;;;;4.10;3.70;;;;;;;-146.48;100.00;60459.00;5344820;27;20422;-71
2021/12/05 12:07:35;;;;;;;4.40;4.00;;;;;;;-146.48;100.00;60459.00;5344606;27;20125;-71
2021/12/05 12:10:21;;;;;;;4.45;4.05;;;;;;;-146.48;100.00;60459.00;5345286;27;20114;-71
2021/12/05 12:12:56;;;;;;;3.92;3.53;;;;;;;-146.48;100.00;60459.00;5344805;27;20063;-71
2021/12/05 12:15:30;;;;;;;4.07;3.30;;;;;;;-146.48;100.00;60459.00;5344796;27;20031;-71
2021/12/05 12:18:16;;;;;;;3.75;3.45;;;;;;;-146.48;100.00;60459.00;5344735;27;20023;-71
2021/12/05 12:20:48;;;;;;;4.28;3.13;;;;;;;-146.48;100.00;60459.00;5345094;27;20471;-71
2021/12/05 12:23:20;;;;;;;3.13;2.83;;;;;;;-146.48;100.00;60459.00;5344384;27;20074;-71
2021/12/05 12:25:56;;;;;;;2.90;2.60;;;;;;;-146.48;100.00;60459.00;5344010;27;20027;-71
2021/12/05 12:28:28;;;;;;;3.30;3.00;;;;;;;-146.48;100.00;60459.00;5344163;27;20034;-70
2021/12/05 12:31:04;;;;;;;3.63;3.13;;;;;;;-146.48;100.00;60459.00;5344544;27;20054;-70
2021/12/05 12:33:42;;;;;;;3.72;3.22;;;;;;;-146.48;100.00;60459.00;5345092;27;20041;-70
2021/12/05 12:36:13;;;;;;;3.55;3.10;;;;;;;-146.48;100.00;60459.00;5344232;27;20023;-70
2021/12/05 12:38:45;;;;;;;3.83;3.53;;;;;;;-146.48;100.00;60459.00;5343699;27;20034;-70
2021/12/05 12:41:21;;;;;;;3.70;3.40;;;;;;;-146.48;100.00;60459.00;5344931;27;20023;-69
2021/12/05 12:44:06;;;;;;;4.65;4.28;;;;;;;-146.48;100.00;60459.00;5343510;27;20088;-71
2021/12/05 12:46:45;;;;;;;4.78;4.38;;;;;;;-146.48;100.00;60459.00;5344074;27;20097;-72
2021/12/05 12:49:17;;;;;;;5.05;4.65;;;;;;;-146.48;100.00;60459.00;5344407;27;20054;-70
2021/12/05 12:52:06;;;;;;;4.05;3.65;;;;;;;-146.48;100.00;60459.00;5342930;27;20107;-70
2021/12/05 12:54:45;;;;;;;4.43;3.58;;;;;;;-146.48;100.00;60459.00;5343994;27;20042;-71
2021/12/05 12:57:26;;;;;;;3.72;3.42;;;;;;;-146.48;100.00;60459.00;5343907;27;20539;-71
2021/12/05 13:00:08;;;;;;;6.15;4.00;;;;;;;-146.48;100.00;60459.00;5343906;27;20054;-70
2021/12/05 13:11:23;;;;;;;3.35;3.03;;;;;;;-146.48;100.00;60459.00;5343646;27;20390;-70
2021/12/05 13:14:04;;;;;;;5.30;3.17;;;;;;;-146.48;100.00;60459.00;5343634;27;20122;-71
2021/12/05 13:16:37;;;;;;;3.85;3.47;;;;;;;-146.48;100.00;60459.00;5343831;27;20029;-71
2021/12/05 13:19:14;;;;;;;4.75;3.20;;;;;;;-146.48;100.00;60459.00;5343600;27;20328;-70
2021/12/05 13:21:49;;;;;;;4.68;3.70;;;;;;;-146.48;100.00;60459.00;5343473;27;20025;-71
2021/12/05 13:24:26;;;;;;;4.55;3.67;;;;;;;-146.48;100.00;60459.00;5344010;27;20019;-71
2021/12/05 13:27:09;;;;;;;3.58;2.45;;;;;;;-146.48;100.00;60459.00;5342880;27;20182;-71
2021/12/05 13:29:51;;;;;;;3.50;3.20;;;;;;;-146.48;100.00;60459.00;5342793;27;20027;-71
2021/12/05 13:32:26;;;;;;;3.50;3.20;;;;;;;-146.48;100.00;60459.00;5343283;27;20100;-71
2021/12/05 13:35:07;;;;;;;3.55;3.03;;;;;;;-146.48;100.00;60459.00;5333943;27;20023;-71
2021/12/05 13:37:49;;;;;;;3.83;3.30;;;;;;;-146.48;100.00;60459.00;5328254;27;20373;-70
2021/12/05 13:40:26;;;;;;;2.75;2.55;;;;;;;-146.48;100.00;60459.00;5321600;28;20019;-70
2021/12/05 13:43:06;;;;;;;3.50;3.20;;;;;;;-146.48;100.00;60459.00;5321961;28;20076;-68
2021/12/05 13:45:43;;;;;;;3.60;3.13;;;;;;;-146.48;100.00;60459.00;5321949;28;20428;-70
2021/12/05 13:48:19;;;;;;;4.25;3.85;;;;;;;-146.48;100.00;60459.00;5320919;28;20455;-70
2021/12/05 13:51:00;;;;;;;4.10;3.67;;;;;;;-146.48;100.00;60459.00;5321962;28;20027;-70
2021/12/05 13:53:34;;;;;;;5.18;3.85;;;;;;;-146.48;100.00;60459.00;5324223;28;20381;-70
2021/12/05 13:56:10;;;;;;;4.80;4.40;;;;;;;-146.48;100.00;60459.00;5328944;27;20480;-72
2021/12/05 13:58:45;;;;;;;5.25;4.75;;;;;;;-146.48;100.00;60459.00;5329229;28;20040;-71
2021/12/05 14:01:33;;;;;;;5.47;4.97;;;;;;;-146.48;100.00;60459.00;5328259;28;20031;-71
2021/12/05 14:04:16;;;;;;;5.35;4.88;;;;;;;-146.48;100.00;60459.00;5328850;28;20538;-71
2021/12/05 14:07:04;;;;;;;5.85;5.35;;;;;;;-146.48;100.00;60459.00;5328771;28;20103;-71
2021/12/05 14:09:44;;;;;;;5.57;5.15;;;;;;;-146.48;100.00;60459.00;5329630;28;20482;-70
2021/12/05 14:12:28;;;;;;;6.47;5.88;;;;;;;-146.48;100.00;60459.00;5329222;28;20027;-70
2021/12/05 14:15:03;;;;;;;6.10;5.50;;;;;;;-146.48;100.00;60459.00;5327991;28;20030;-71
2021/12/05 14:17:37;;;;;;;5.40;4.90;;;;;;;-146.48;100.00;60459.00;5329463;28;20026;-71
2021/12/05 14:20:16;;;;;;;5.82;5.22;;;;;;;-146.48;100.00;60459.00;5329302;28;20032;-72
2021/12/05 14:22:49;;;;;;;5.18;4.78;;;;;;;-146.48;100.00;60459.00;5327937;28;20019;-71
2021/12/05 14:25:24;;;;;;;6.28;5.00;;;;;;;-146.48;100.00;60459.00;5329571;28;20044;-71
2021/12/05 14:27:58;;;;;;;5.80;5.20;;;;;;;-146.48;100.00;60459.00;5328283;28;20029;-71
2021/12/05 14:30:34;;;;;;;3.92;3.63;;;;;;;-146.48;100.00;60459.00;5328321;28;20028;-71
2021/12/05 14:33:06;;;;;;;4.68;4.13;;;;;;;-146.48;100.00;60459.00;5328652;28;20386;-70
2021/12/05 14:35:40;;;;;;;4.30;3.97;;;;;;;-146.48;100.00;60459.00;5327751;28;20016;-70
2021/12/05 14:38:12;;;;;;;5.50;4.95;;;;;;;-146.48;100.00;60459.00;5329053;28;20020;-70
2021/12/05 14:40:43;;;;;;;5.28;4.78;;;;;;;-146.48;100.00;60459.00;5328196;28;20475;-70
2021/12/05 14:43:19;;;;;;;5.47;4.97;;;;;;;-146.48;100.00;60459.00;5328296;28;20098;-70
2021/12/05 14:45:51;;;;;;;5.90;5.28;;;;;;;-146.48;100.00;60459.00;5328315;28;20026;-70
2021/12/05 14:48:22;;;;;;;6.00;5.50;;;;;;;-146.48;100.00;60459.00;5328735;28;20344;-70
2021/12/05 14:50:53;;;;;;;5.97;5.47;;;;;;;-146.48;100.00;60459.00;5327725;28;20024;-71
2021/12/05 14:53:27;;;;;;;6.13;5.05;;;;;;;-146.48;100.00;60459.00;5328492;27;20047;-70
2021/12/05 14:55:59;;;;;;;5.55;4.75;;;;;;;-146.48;100.00;60459.00;5328288;28;20024;-70
2021/12/05 14:58:30;;;;;;;4.85;4.43;;;;;;;-146.48;100.00;60459.00;5327930;28;20383;-70
2021/12/05 15:01:02;;;;;;;5.93;5.30;;;;;;;-146.48;100.00;60459.00;5328367;27;20102;-71
2021/12/05 15:03:33;;;;;;;5.88;5.30;;;;;;;-146.48;100.00;60459.00;5328096;28;20055;-70
2021/12/05 15:06:07;;;;;;;5.68;5.18;;;;;;;-146.48;100.00;60459.00;5323890;28;20026;-70
2021/12/05 15:08:38;;;;;;;5.65;5.03;;;;;;;-146.48;100.00;60459.00;5324833;28;20027;-71
2021/12/05 15:11:10;;;;;;;6.07;5.50;;;;;;;-146.48;100.00;60459.00;5324916;28;20041;-70
2021/12/05 15:13:42;;;;;;;6.07;5.35;;;;;;;-146.48;100.00;60459.00;5324918;28;20027;-70
2021/12/05 15:16:14;;;;;;;5.72;5.20;;;;;;;-146.48;100.00;60459.00;5325296;28;20027;-70
2021/12/05 15:18:45;;;;;;;5.05;4.65;;;;;;;-146.48;100.00;60459.00;5323552;28;20482;-71
2021/12/05 15:21:17;;;;;;;6.13;5.32;;;;;;;-146.48;100.00;60459.00;5325218;28;20024;-70
2021/12/05 15:23:48;;;;;;;5.43;4.80;;;;;;;-146.48;100.00;60459.00;5324856;28;20034;-71
2021/12/05 15:26:20;;;;;;;4.75;4.35;;;;;;;-146.48;100.00;60459.00;5324504;28;20055;-72
2021/12/05 15:29:00;;;;;;;4.57;4.15;;;;;;;-146.48;100.00;60459.00;5324427;28;20102;-71
2021/12/05 15:31:40;;;;;;;5.80;4.35;;;;;;;-146.48;100.00;60459.00;5323777;28;20128;-71
2021/12/05 15:34:26;;;;;;;5.15;4.65;;;;;;;-146.48;100.00;60459.00;5324964;28;20024;-71
2021/12/05 15:37:05;;;;;;;5.28;4.72;;;;;;;-146.48;100.00;60459.00;5324528;28;20031;-71
2021/12/05 15:39:40;;;;;;;5.68;5.13;;;;;;;-146.48;100.00;60459.00;5342394;27;20034;-71
2021/12/05 15:42:22;;;;;;;7.35;6.20;;;;;;;-146.48;100.00;60459.00;5345707;27;20020;-71
2021/12/05 15:44:57;;;;;;;8.10;6.13;;;;;;;-146.48;100.00;60459.00;5345258;27;20027;-72
2021/12/05 15:47:31;;;;;;;5.57;5.03;;;;;;;-146.48;100.00;60459.00;5345187;27;20062;-71
2021/12/05 15:50:16;;;;;;;6.03;5.43;;;;;;;-146.48;100.00;60459.00;5345357;27;20175;-72
2021/12/05 15:52:51;;;;;;;6.00;5.40;;;;;;;-146.48;100.00;60459.00;5344592;27;20034;-72
2021/12/05 15:55:29;;;;;;;6.82;5.93;;;;;;;-146.48;100.00;60459.00;5345772;27;20111;-72
2021/12/05 15:58:03;;;;;;;7.50;6.00;;;;;;;-146.48;100.00;60459.00;5344967;27;20038;-72
2021/12/05 16:00:50;;;;;;;7.05;6.05;;;;;;;-146.48;100.00;60459.00;5340222;27;20054;-71
2021/12/05 16:03:24;;;;;;;7.03;6.32;;;;;;;-146.48;100.00;60459.00;5345792;27;20057;-71
2021/12/05 16:05:59;;;;;;;7.65;6.50;;;;;;;-146.48;100.00;60459.00;5344940;27;20486;-71
2021/12/05 16:08:32;;;;;;;6.10;5.50;;;;;;;-146.48;100.00;60459.00;5344871;27;20034;-71
2021/12/05 16:11:11;;;;;;;5.78;5.28;;;;;;;-146.48;100.00;60459.00;5344727;27;20082;-71
2021/12/05 16:13:43;;;;;;;5.35;4.90;;;;;;;-146.48;100.00;60459.00;5343663;27;20042;-71
2021/12/05 16:16:22;;;;;;;5.22;4.72;;;;;;;-146.48;100.00;60459.00;5344691;27;20096;-71
2021/12/05 16:18:57;;;;;;;5.15;4.47;;;;;;;-146.48;100.00;60459.00;5344195;27;20023;-70
2021/12/05 16:21:33;;;;;;;5.00;4.50;;;;;;;-146.48;100.00;60459.00;5343747;27;20026;-71
2021/12/05 16:24:08;;;;;;;6.53;5.15;;;;;;;-146.48;100.00;60459.00;5344642;27;20023;-71
2021/12/05 16:26:40;;;;;;;6.15;4.65;;;;;;;-146.48;100.00;60459.00;5344010;27;20023;-71
2021/12/05 16:29:16;;;;;;;7.13;5.13;;;;;;;-146.48;100.00;60459.00;5344378;27;20038;-71
2021/12/05 16:31:59;;;;;;;13.95;9.73;;;;;;;-146.48;100.00;60459.00;5325991;27;20047;-71
2021/12/05 16:34:32;;;;;;;11.70;8.70;;;;;;;-146.48;100.00;60459.00;5323325;28;20062;-71
2021/12/05 16:37:07;;;;;;;9.00;7.70;;;;;;;-146.48;100.00;60459.00;5322208;28;20020;-71
2021/12/05 16:39:45;;;;;;;5.50;5.00;;;;;;;-146.48;100.00;60459.00;5322220;28;20054;-71
2021/12/05 16:42:20;;;;;;;6.20;5.60;;;;;;;-146.48;100.00;60459.00;5324102;28;20027;-71
2021/12/05 16:44:58;;;;;;;5.80;5.25;;;;;;;-146.48;100.00;60459.00;5322917;28;20023;-71
2021/12/05 16:47:32;;;;;;;5.25;4.75;;;;;;;-146.48;100.00;60459.00;5323330;28;20051;-71
2021/12/05 16:50:07;;;;;;;5.78;5.15;;;;;;;-146.48;100.00;60459.00;5322167;28;20031;-71
2021/12/05 16:52:47;;;;;;;6.28;5.22;;;;;;;-146.48;100.00;60459.00;5322580;28;20402;-70